Time;durP1;ratioP1;P1;durP2;ratioP2;P2;SDS_P1;SDS_P2;PMS_P1;PMS_P2;Temp;Humidity;BMP_temperature;BMP_pressure;BME280_temperature;BME280_humidity;BME280_pressure;Samples;Min_cycle;Max_cycle;Signal;HPM_P1;HPM_P2
2023/02/16 00:02:09;;;;;;;;;;;;;;;-0.81;100.00;98261.81;5053461;28;20037;-56
2023/02/16 00:04:35;;;;;;;21.50;10.43;;;;;;;-0.89;100.00;98267.06;5050781;28;20585;-57
2023/02/16 00:07:02;;;;;;;20.52;10.65;;;;;;;-0.95;100.00;98263.22;5054678;28;20646;-54
2023/02/16 00:09:28;;;;;;;17.15;8.68;;;;;;;-1.01;100.00;98274.44;5054837;28;20043;-54
2023/02/16 00:14:41;;;;;;;17.80;10.27;;;;;;;-0.96;100.00;98274.84;5054711;28;20149;-55
2023/02/16 00:17:10;;;;;;;18.08;10.20;;;;;;;-0.90;100.00;98276.00;5053288;28;20548;-54
2023/02/16 00:19:38;;;;;;;16.60;9.00;;;;;;;-0.87;100.00;98273.06;5052887;28;20117;-57
2023/02/16 00:22:06;;;;;;;14.52;9.43;;;;;;;-0.96;100.00;98280.97;5053609;28;20041;-55
2023/02/16 00:24:33;;;;;;;15.77;9.65;;;;;;;-0.99;100.00;98280.47;5052810;28;20119;-53
2023/02/16 00:27:00;;;;;;;18.98;10.38;;;;;;;-1.09;100.00;98275.22;5049262;28;20079;-53
2023/02/16 00:29:33;;;;;;;14.35;9.27;;;;;;;-1.14;100.00;98273.03;5051483;28;20044;-57
2023/02/16 00:32:01;;;;;;;18.70;10.25;;;;;;;-1.13;100.00;98261.44;5053291;28;20804;-54
2023/02/16 00:34:40;;;;;;;18.50;9.65;;;;;;;-1.15;100.00;98271.38;5052158;28;20164;-55
2023/02/16 00:37:09;;;;;;;15.88;9.95;;;;;;;-1.12;100.00;98267.56;5055173;28;20044;-55
2023/02/16 00:39:37;;;;;;;20.85;10.45;;;;;;;-1.18;100.00;98280.47;5049342;28;20416;-54
2023/02/16 00:42:11;;;;;;;14.30;9.13;;;;;;;-1.20;100.00;98277.16;5051564;28;20052;-53
2023/02/16 00:44:37;;;;;;;15.80;8.07;;;;;;;-0.96;100.00;98273.00;5048287;28;20501;-54
2023/02/16 00:47:27;;;;;;;15.52;8.43;;;;;;;-0.59;100.00;98270.25;5050657;28;20440;-56
2023/02/16 00:49:55;;;;;;;13.70;8.05;;;;;;;-0.72;100.00;98258.19;5052377;28;20076;-54
2023/02/16 00:52:41;;;;;;;14.75;7.85;;;;;;;-0.87;100.00;98260.59;5047949;28;20037;-56
2023/02/16 00:55:13;;;;;;;15.18;8.45;;;;;;;-0.92;100.00;98262.91;5051120;28;20154;-56
2023/02/16 00:58:00;;;;;;;15.27;8.27;;;;;;;-0.79;100.00;98258.00;5053442;28;20042;-55
2023/02/16 01:00:36;;;;;;;16.10;8.82;;;;;;;-1.07;100.00;98265.28;5055233;28;20124;-55
2023/02/16 01:03:13;;;;;;;13.70;8.20;;;;;;;-0.96;100.00;98269.53;5049158;28;20043;-55
2023/02/16 01:05:40;;;;;;;17.67;8.90;;;;;;;-1.03;100.00;98271.97;5055386;28;20514;-55
2023/02/16 01:11:06;;;;;;;17.95;10.00;;;;;;;-1.71;100.00;98277.69;5055867;28;20040;-54
2023/02/16 01:13:42;;;;;;;18.65;10.25;;;;;;;-1.64;100.00;98269.97;5047087;28;20053;-56
2023/02/16 01:16:19;;;;;;;18.63;9.55;;;;;;;-1.53;100.00;98268.06;5053539;28;20052;-54
2023/02/16 01:18:46;;;;;;;15.30;9.77;;;;;;;-1.46;100.00;98269.13;5050216;28;20064;-57
2023/02/16 01:21:13;;;;;;;19.70;9.15;;;;;;;-1.40;100.00;98271.16;5049173;28;20044;-57
2023/02/16 01:23:40;;;;;;;18.45;9.57;;;;;;;-1.33;100.00;98266.91;5050772;28;20056;-55
2023/02/16 01:26:13;;;;;;;18.05;9.25;;;;;;;-1.26;100.00;98266.31;5049725;28;20089;-57
2023/02/16 01:28:39;;;;;;;16.33;8.93;;;;;;;-1.35;100.00;98260.06;5050191;28;20040;-54
2023/02/16 01:31:11;;;;;;;14.57;9.35;;;;;;;-1.53;100.00;98262.75;5049039;28;20695;-56
2023/02/16 01:33:38;;;;;;;;;;;;;;;-1.47;100.00;98255.00;5045116;28;20059;-53
2023/02/16 01:36:22;;;;;;;14.30;7.63;;;;;;;-1.37;100.00;98262.88;5055921;28;19932;-53
2023/02/16 01:38:49;;;;;;;17.02;8.48;;;;;;;-1.24;100.00;98270.47;5048329;28;20048;-55
2023/02/16 01:41:21;;;;;;;18.55;10.15;;;;;;;-1.24;100.00;98259.84;5047580;28;21687;-52
2023/02/16 01:43:55;;;;;;;14.90;8.95;;;;;;;-1.19;100.00;98254.91;5050745;28;20060;-53
2023/02/16 01:46:35;;;;;;;16.65;8.63;;;;;;;-1.26;100.00;98266.31;5054367;28;20029;-54
2023/02/16 01:49:02;;;;;;;13.05;7.75;;;;;;;-1.22;100.00;98249.88;5046881;28;20040;-56
2023/02/16 01:51:36;;;;;;;14.43;7.13;;;;;;;-1.27;100.00;98262.81;5047146;28;20110;-55
2023/02/16 01:54:31;;;;;;;15.43;7.93;;;;;;;-1.13;100.00;98257.91;5047111;28;20119;-54
2023/02/16 01:57:03;;;;;;;11.05;7.85;;;;;;;-1.22;100.00;98251.72;5051160;28;20040;-53
2023/02/16 01:59:42;;;;;;;12.48;7.60;;;;;;;-1.34;100.00;98259.09;5046289;28;20444;-55
2023/02/16 02:02:24;;;;;;;11.65;7.43;;;;;;;-1.20;100.00;98247.91;5049506;28;20052;-54
2023/02/16 02:07:50;;;;;;;15.15;7.35;;;;;;;-0.90;100.00;98239.63;5046372;28;20037;-56
2023/02/16 02:10:40;;;;;;;12.85;7.32;;;;;;;-0.93;100.00;98243.44;5048598;28;20033;-55
2023/02/16 02:13:23;;;;;;;12.20;6.50;;;;;;;-0.82;100.00;98241.50;5050971;28;20032;-53
2023/02/16 02:15:51;;;;;;;13.65;6.60;;;;;;;-0.99;100.00;98244.06;5034486;28;20033;-55
2023/02/16 02:18:17;;;;;;;15.25;8.10;;;;;;;-1.15;100.00;98238.66;5051508;28;20132;-55
2023/02/16 02:23:36;;;;;;;16.07;8.30;;;;;;;-1.18;100.00;98240.63;5053072;28;20580;-54
2023/02/16 02:26:33;;;;;;;12.52;7.43;;;;;;;-1.10;100.00;98229.19;5054511;28;20040;-52
2023/02/16 02:29:18;;;;;;;16.00;8.80;;;;;;;-1.19;100.00;98230.13;5058421;28;20068;-52
2023/02/16 02:32:17;;;;;;;12.30;7.45;;;;;;;-1.14;100.00;98227.03;5055307;28;20123;-55
2023/02/16 02:34:47;;;;;;;13.93;7.60;;;;;;;-1.36;100.00;98215.91;5041397;28;20040;-55
2023/02/16 02:37:26;;;;;;;14.13;8.00;;;;;;;-1.46;100.00;98227.47;5052145;28;20041;-52
2023/02/16 02:40:04;;;;;;;14.23;8.07;;;;;;;-1.44;100.00;98235.25;5047576;28;20045;-53
2023/02/16 02:43:07;;;;;;;12.98;7.22;;;;;;;-1.61;100.00;98226.31;5054223;28;20033;-52
2023/02/16 02:45:49;;;;;;;15.25;8.60;;;;;;;-1.47;100.00;98227.63;5051349;28;20051;-55
2023/02/16 02:48:16;;;;;;;13.48;8.32;;;;;;;-1.37;100.00;98222.22;5051059;28;20041;-53
2023/02/16 03:03:30;;;;;;;12.43;7.72;;;;;;;-1.63;100.00;98223.81;5047847;28;20785;-54
2023/02/16 03:05:57;;;;;;;;;;;;;;;-1.69;100.00;98219.13;5047295;28;20573;-55
2023/02/16 03:08:27;;;;;;;16.30;10.15;;;;;;;-1.65;100.00;98214.34;5051844;28;20025;-56
2023/02/16 03:13:54;;;;;;;15.18;8.10;;;;;;;-1.40;100.00;98211.88;5052144;28;20111;-54
2023/02/16 03:16:27;;;;;;;15.05;8.55;;;;;;;-1.42;100.00;98211.19;5049864;28;20072;-53
2023/02/16 03:30:08;;;;;;;13.00;7.20;;;;;;;-1.44;100.00;98217.50;5053438;28;20049;-55
2023/02/16 03:32:36;;;;;;;13.02;7.82;;;;;;;-1.35;100.00;98217.56;5053466;28;20132;-52
2023/02/16 03:35:03;;;;;;;14.80;8.35;;;;;;;-1.35;100.00;98207.78;5050641;28;20089;-56
2023/02/16 03:37:31;;;;;;;17.55;7.20;;;;;;;-1.25;100.00;98220.94;5050421;28;20089;-56
2023/02/16 03:42:50;;;;;;;11.48;6.82;;;;;;;-1.27;100.00;98217.63;5054583;28;20515;-57
2023/02/16 03:45:20;;;;;;;12.57;7.07;;;;;;;-1.21;100.00;98218.84;5050709;28;20055;-55
2023/02/16 03:47:47;;;;;;;14.63;7.05;;;;;;;-1.07;100.00;98223.56;5054477;28;20556;-55
2023/02/16 03:50:14;;;;;;;10.25;6.28;;;;;;;-0.89;100.00;98220.03;5048162;28;20068;-55
2023/02/16 03:52:40;;;;;;;14.23;7.15;;;;;;;-0.74;100.00;98225.59;5054097;28;20721;-55
2023/02/16 03:55:07;;;;;;;12.18;6.90;;;;;;;-0.67;100.00;98223.97;5051564;28;20080;-54
2023/02/16 03:57:34;;;;;;;12.00;6.03;;;;;;;-0.71;100.00;98227.09;5052622;28;20045;-53
2023/02/16 04:00:00;;;;;;;12.95;6.32;;;;;;;-0.76;100.00;98226.75;5049862;28;20036;-57
2023/02/16 04:02:28;;;;;;;12.15;6.97;;;;;;;-1.00;100.00;98229.09;5051018;28;20049;-55
2023/02/16 04:04:54;;;;;;;13.18;6.90;;;;;;;-1.15;100.00;98220.03;5050233;28;20041;-55
2023/02/16 04:07:21;;;;;;;11.13;7.35;;;;;;;-1.35;100.00;98221.06;5054734;28;20043;-56
2023/02/16 04:09:47;;;;;;;14.63;7.63;;;;;;;-1.27;100.00;98224.75;5050378;28;20558;-56
2023/02/16 04:14:59;;;;;;;14.65;8.10;;;;;;;-1.18;100.00;98216.69;5052462;28;20041;-58
2023/02/16 04:17:25;;;;;;;14.32;7.38;;;;;;;-1.14;100.00;98229.69;5051020;28;20504;-57
2023/02/16 04:19:52;;;;;;;14.50;7.72;;;;;;;-1.20;100.00;98228.47;5047646;28;20116;-55
2023/02/16 04:22:19;;;;;;;14.15;6.80;;;;;;;-1.32;100.00;98226.06;5051317;28;20036;-57
2023/02/16 04:24:45;;;;;;;10.80;6.60;;;;;;;-1.39;100.00;98238.31;5054187;28;20127;-56
2023/02/16 04:27:11;;;;;;;11.13;6.80;;;;;;;-1.36;100.00;98242.47;5058719;28;20048;-57
2023/02/16 04:29:38;;;;;;;16.27;7.28;;;;;;;-1.43;100.00;98239.59;5047083;28;20630;-57
2023/02/16 04:32:05;;;;;;;13.88;7.93;;;;;;;-1.39;100.00;98233.00;5056342;28;20045;-57
2023/02/16 04:34:31;;;;;;;13.00;7.68;;;;;;;-1.35;100.00;98244.13;5054173;28;20592;-57
2023/02/16 04:36:58;;;;;;;12.73;7.40;;;;;;;-1.41;100.00;98244.75;5056553;28;20504;-57
2023/02/16 04:39:24;;;;;;;15.57;7.45;;;;;;;-1.45;100.00;98237.09;5050578;28;20136;-55
2023/02/16 04:41:51;;;;;;;12.65;7.10;;;;;;;-1.41;100.00;98242.09;5054336;28;20123;-56
2023/02/16 04:44:17;;;;;;;16.20;8.18;;;;;;;-1.37;100.00;98238.97;5058155;28;20044;-55
2023/02/16 04:46:43;;;;;;;15.15;7.75;;;;;;;-1.35;100.00;98246.78;5043338;28;20037;-55
2023/02/16 04:49:10;;;;;;;14.13;6.93;;;;;;;-1.35;100.00;98247.63;5048646;28;20049;-56
2023/02/16 04:51:38;;;;;;;16.00;7.70;;;;;;;-1.36;100.00;98243.28;5054784;28;20045;-55
2023/02/16 04:54:06;;;;;;;13.65;7.80;;;;;;;-1.36;100.00;98240.63;5053459;28;20056;-53
2023/02/16 04:56:32;;;;;;;13.38;7.38;;;;;;;-1.38;100.00;98239.97;5048097;28;20037;-56
2023/02/16 04:58:58;;;;;;;16.80;9.10;;;;;;;-1.36;100.00;98242.47;5048644;28;20206;-56
2023/02/16 05:01:26;;;;;;;15.32;7.68;;;;;;;-1.28;100.00;98233.72;5052936;28;20088;-54
2023/02/16 05:03:53;;;;;;;14.40;7.25;;;;;;;-1.34;100.00;98228.03;5051825;28;20474;-56
2023/02/16 05:06:19;;;;;;;14.80;8.45;;;;;;;-1.42;100.00;98235.94;5054553;28;20048;-55
2023/02/16 05:08:46;;;;;;;12.93;7.55;;;;;;;-1.49;100.00;98237.53;5057104;28;20043;-56
2023/02/16 05:16:44;;;;;;;12.15;7.10;;;;;;;-1.38;100.00;98239.13;5056357;28;20504;-56
2023/02/16 05:19:11;;;;;;;14.80;7.35;;;;;;;-1.49;100.00;98235.72;5058115;28;20052;-55
2023/02/16 05:21:38;;;;;;;13.98;7.55;;;;;;;-1.63;100.00;98238.91;5054604;28;20458;-57
2023/02/16 05:24:10;;;;;;;13.80;7.95;;;;;;;-1.73;100.00;98242.47;5054417;28;20445;-55
2023/02/16 05:26:38;;;;;;;14.75;7.68;;;;;;;-1.71;100.00;98237.88;5055973;28;20595;-55
2023/02/16 05:29:06;;;;;;;15.60;8.50;;;;;;;-1.69;100.00;98232.41;5055413;28;20074;-57
2023/02/16 05:31:32;;;;;;;15.98;8.43;;;;;;;-1.67;100.00;98240.22;5054263;28;20068;-55
2023/02/16 05:33:59;;;;;;;15.60;8.70;;;;;;;-1.60;100.00;98238.59;5054837;28;20040;-54
2023/02/16 05:36:25;;;;;;;18.52;9.18;;;;;;;-1.61;100.00;98242.25;5056941;28;20094;-57
2023/02/16 05:38:52;;;;;;;15.50;8.02;;;;;;;-1.71;100.00;98237.88;5050299;28;20036;-57
2023/02/16 05:41:24;;;;;;;14.88;8.70;;;;;;;-1.87;100.00;98243.00;5049341;28;20062;-57
2023/02/16 05:43:56;;;;;;;11.63;7.32;;;;;;;-1.82;100.00;98248.69;5063268;28;20036;-56
2023/02/16 05:46:24;;;;;;;16.48;8.35;;;;;;;-1.83;100.00;98250.50;5055857;28;20102;-55
2023/02/16 05:48:51;;;;;;;13.32;7.93;;;;;;;-1.91;100.00;98254.91;5052978;28;20089;-56
2023/02/16 05:51:18;;;;;;;13.02;7.97;;;;;;;-1.94;100.00;98248.09;5050184;28;20045;-56
2023/02/16 05:53:45;;;;;;;13.32;7.63;;;;;;;-1.92;100.00;98264.69;5057224;28;20044;-54
2023/02/16 05:56:12;;;;;;;15.25;8.35;;;;;;;-1.86;100.00;98256.13;5062134;28;20131;-55
2023/02/16 05:58:39;;;;;;;13.02;8.15;;;;;;;-1.71;100.00;98266.22;5060016;28;20120;-54
2023/02/16 06:01:05;;;;;;;13.35;7.63;;;;;;;-1.62;100.00;98265.31;5054803;28;20535;-57
2023/02/16 06:03:32;;;;;;;11.90;6.93;;;;;;;-1.63;100.00;98261.00;5060523;28;20079;-53
2023/02/16 06:06:01;;;;;;;15.60;8.65;;;;;;;-1.56;100.00;98261.22;5050450;28;20088;-54
2023/02/16 06:08:28;;;;;;;16.15;7.43;;;;;;;-1.51;100.00;98269.56;5059413;28;20052;-54
2023/02/16 06:10:55;;;;;;;16.45;7.82;;;;;;;-1.48;100.00;98271.94;5056823;28;20044;-58
2023/02/16 06:13:23;;;;;;;11.90;7.30;;;;;;;-1.44;100.00;98265.31;5054406;28;20095;-56
2023/02/16 06:15:55;;;;;;;14.80;8.07;;;;;;;-1.40;100.00;98270.34;5059148;28;20040;-54
2023/02/16 06:18:23;;;;;;;14.85;7.05;;;;;;;-1.40;100.00;98271.16;5063550;28;20857;-56
2023/02/16 06:20:50;;;;;;;14.15;8.15;;;;;;;-1.35;100.00;98276.03;5062579;28;20064;-57
2023/02/16 06:23:16;;;;;;;14.70;7.45;;;;;;;-1.39;100.00;98285.28;5053594;28;20045;-52
2023/02/16 06:25:50;;;;;;;15.73;8.45;;;;;;;-1.46;100.00;98285.06;5058800;28;20044;-57
2023/02/16 06:28:16;;;;;;;14.93;7.72;;;;;;;-1.49;100.00;98286.19;5057955;28;20051;-57
2023/02/16 06:30:43;;;;;;;19.67;10.18;;;;;;;-1.55;100.00;98281.47;5059901;28;20050;-53
2023/02/16 06:33:09;;;;;;;15.07;9.48;;;;;;;-1.52;100.00;98285.69;5058605;28;20044;-53
2023/02/16 06:35:36;;;;;;;13.18;7.60;;;;;;;-1.53;100.00;98278.69;5060661;28;20067;-57
2023/02/16 06:38:02;;;;;;;12.73;7.45;;;;;;;-1.39;100.00;98279.97;5057620;28;20068;-53
2023/02/16 06:40:29;;;;;;;16.83;8.90;;;;;;;-1.36;100.00;98283.16;5055787;28;20558;-52
2023/02/16 06:42:55;;;;;;;14.23;7.53;;;;;;;-1.36;100.00;98282.34;5066695;28;20721;-54
2023/02/16 06:45:22;;;;;;;15.27;8.88;;;;;;;-1.35;100.00;98279.53;5059027;28;20068;-53
2023/02/16 06:47:48;;;;;;;14.48;8.65;;;;;;;-1.36;100.00;98283.16;5062369;28;20127;-56
2023/02/16 06:50:16;;;;;;;18.63;9.38;;;;;;;-1.31;100.00;98286.19;5056742;28;20052;-53
2023/02/16 06:52:42;;;;;;;15.18;8.32;;;;;;;-1.34;100.00;98289.16;5064848;28;20040;-55
2023/02/16 06:55:09;;;;;;;15.50;8.82;;;;;;;-1.39;100.00;98295.91;5063203;28;20113;-57
2023/02/16 06:57:35;;;;;;;14.10;8.50;;;;;;;-1.42;100.00;98291.75;5063313;28;20044;-57
2023/02/16 07:00:06;;;;;;;17.17;8.27;;;;;;;-1.46;100.00;98290.38;5060263;28;20068;-58
2023/02/16 07:02:32;;;;;;;14.63;7.97;;;;;;;-1.44;100.00;98291.88;5061912;28;20090;-55
2023/02/16 07:04:59;;;;;;;16.35;9.15;;;;;;;-1.47;100.00;98288.72;5062984;28;20036;-55
2023/02/16 07:07:25;;;;;;;15.20;9.20;;;;;;;-1.49;100.00;98288.00;5059420;28;20518;-58
2023/02/16 07:09:52;;;;;;;17.92;9.90;;;;;;;-1.50;100.00;98297.81;5062789;28;20718;-58
2023/02/16 07:12:18;;;;;;;18.10;8.63;;;;;;;-1.48;100.00;98295.00;5056214;28;20075;-58
2023/02/16 07:14:45;;;;;;;16.75;9.38;;;;;;;-1.47;100.00;98294.84;5058618;28;20473;-57
2023/02/16 07:17:11;;;;;;;12.32;7.45;;;;;;;-1.47;100.00;98297.50;5063836;28;20048;-58
2023/02/16 07:19:38;;;;;;;17.10;10.50;;;;;;;-1.36;100.00;98298.28;5060667;28;20037;-56
2023/02/16 07:22:04;;;;;;;17.17;8.50;;;;;;;-1.33;100.00;98296.13;5058251;28;20496;-55
2023/02/16 07:24:31;;;;;;;16.15;8.65;;;;;;;-1.25;100.00;98299.88;5063630;28;20047;-58
2023/02/16 07:26:57;;;;;;;13.52;7.50;;;;;;;-1.26;100.00;98303.50;5059711;28;20052;-58
2023/02/16 07:29:24;;;;;;;17.00;8.25;;;;;;;-1.18;100.00;98301.75;5060361;28;20049;-58
2023/02/16 07:31:50;;;;;;;17.15;9.27;;;;;;;-1.05;100.00;98301.38;5055313;28;20119;-57
2023/02/16 07:34:17;;;;;;;13.65;6.97;;;;;;;-0.92;100.00;98300.13;5060248;28;20048;-58
2023/02/16 07:36:46;;;;;;;13.10;7.88;;;;;;;-0.88;100.00;98304.16;5064936;28;20650;-58
2023/02/16 07:39:12;;;;;;;15.52;8.02;;;;;;;-0.79;100.00;98305.03;5055636;28;20080;-57
2023/02/16 07:41:39;;;;;;;14.68;7.70;;;;;;;-0.77;100.00;98307.53;5059349;28;20508;-54
2023/02/16 07:44:07;;;;;;;16.17;8.63;;;;;;;-0.77;100.00;98303.06;5058391;28;20609;-56
2023/02/16 07:46:33;;;;;;;19.35;8.93;;;;;;;-0.68;100.00;98302.13;5059972;28;20551;-55
2023/02/16 07:49:00;;;;;;;17.98;8.50;;;;;;;-0.57;100.00;98300.16;5061731;28;20101;-57
2023/02/16 07:51:29;;;;;;;17.85;8.63;;;;;;;-0.49;100.00;98305.53;5059050;28;20457;-56
2023/02/16 07:53:58;;;;;;;15.05;7.32;;;;;;;-0.41;100.00;98310.06;5061459;28;20041;-57
2023/02/16 07:56:27;;;;;;;13.15;7.65;;;;;;;-0.36;100.00;98312.25;5061546;28;20131;-55
2023/02/16 07:58:55;;;;;;;15.35;7.90;;;;;;;-0.31;100.00;98312.63;5056531;28;20055;-57
2023/02/16 08:01:22;;;;;;;14.98;7.63;;;;;;;-0.36;100.00;98317.59;5057767;28;20072;-56
2023/02/16 08:03:50;;;;;;;14.88;7.47;;;;;;;-0.31;100.00;98317.94;5049524;28;20100;-56
2023/02/16 08:06:17;;;;;;;12.68;7.43;;;;;;;-0.30;100.00;98311.63;5054427;28;20040;-58
2023/02/16 08:08:45;;;;;;;13.45;7.05;;;;;;;-0.16;100.00;98318.19;5053315;28;20049;-54
2023/02/16 08:11:18;;;;;;;11.45;7.35;;;;;;;-0.02;100.00;98314.94;5061441;28;20052;-59
2023/02/16 08:13:45;;;;;;;12.93;6.97;;;;;;;0.07;100.00;98310.44;5056969;28;20114;-59
2023/02/16 08:16:14;;;;;;;12.30;7.15;;;;;;;0.18;100.00;98311.97;5057881;28;20112;-58
2023/02/16 08:18:41;;;;;;;16.60;7.80;;;;;;;0.38;100.00;98317.03;5057961;28;20093;-57
2023/02/16 08:21:16;;;;;;;14.95;7.65;;;;;;;0.47;100.00;98316.06;5040645;28;20487;-57
2023/02/16 08:23:46;;;;;;;13.80;7.32;;;;;;;0.62;100.00;98312.75;5028686;28;20040;-57
2023/02/16 08:26:16;;;;;;;17.95;9.02;;;;;;;0.85;100.00;98314.78;5046611;28;20044;-57
2023/02/16 08:28:48;;;;;;;18.70;8.88;;;;;;;1.32;98.64;98318.59;5055504;28;20052;-58
2023/02/16 08:31:18;;;;;;;15.10;8.80;;;;;;;1.55;97.15;98316.03;5039938;28;20432;-57
2023/02/16 08:33:46;;;;;;;12.68;6.95;;;;;;;2.19;94.48;98313.50;5026717;28;20052;-58
2023/02/16 08:36:23;;;;;;;17.00;7.90;;;;;;;2.28;93.89;98316.97;5048427;28;20470;-57
2023/02/16 08:38:52;;;;;;;15.73;8.40;;;;;;;2.38;93.14;98317.56;5053198;28;20115;-58
2023/02/16 08:41:20;;;;;;;15.00;8.25;;;;;;;2.47;93.05;98315.69;5054732;28;20760;-60
2023/02/16 08:43:48;;;;;;;13.38;7.45;;;;;;;2.65;92.63;98318.06;5021544;28;20060;-60
2023/02/16 08:46:15;;;;;;;15.80;8.43;;;;;;;2.91;91.78;98311.53;5023235;28;21316;-57
2023/02/16 08:48:44;;;;;;;14.25;8.13;;;;;;;3.37;88.01;98309.81;5037911;28;20589;-58
2023/02/16 08:51:16;;;;;;;13.98;8.18;;;;;;;3.82;85.32;98306.31;5057990;28;20044;-58
2023/02/16 08:53:46;;;;;;;13.52;7.72;;;;;;;4.12;85.33;98306.31;5061880;28;20063;-57
2023/02/16 08:56:13;;;;;;;13.63;8.07;;;;;;;4.24;83.22;98306.69;5059733;28;20549;-57
2023/02/16 08:58:39;;;;;;;16.70;8.43;;;;;;;4.55;81.77;98310.94;5055151;28;20106;-58
2023/02/16 09:01:07;;;;;;;15.93;8.45;;;;;;;4.74;81.19;98314.84;5061189;28;20044;-57
2023/02/16 09:03:34;;;;;;;18.70;9.13;;;;;;;4.99;80.35;98309.09;5058933;28;20135;-56
2023/02/16 09:06:03;;;;;;;14.98;7.97;;;;;;;5.02;78.85;98306.03;5058473;28;20036;-58
2023/02/16 09:08:36;;;;;;;15.50;8.18;;;;;;;5.11;79.45;98308.56;5065160;28;20590;-59
2023/02/16 09:11:11;;;;;;;14.55;8.15;;;;;;;5.33;76.79;98307.53;5061409;28;20047;-57
2023/02/16 09:13:39;;;;;;;13.52;7.22;;;;;;;5.48;75.61;98306.59;5061320;28;20044;-56
2023/02/16 09:16:12;;;;;;;17.60;8.90;;;;;;;5.79;75.23;98305.34;5066961;28;20041;-58
2023/02/16 09:18:39;;;;;;;12.43;7.13;;;;;;;5.93;72.59;98308.94;5061609;28;20047;-59
2023/02/16 09:21:09;;;;;;;14.85;7.72;;;;;;;6.06;72.18;98315.44;5062382;28;20518;-57
2023/02/16 09:23:40;;;;;;;15.18;7.60;;;;;;;6.18;72.10;98318.38;5058086;28;20142;-56
2023/02/16 09:26:10;;;;;;;18.58;8.27;;;;;;;6.33;70.66;98310.19;5058557;28;20044;-57
2023/02/16 09:28:38;;;;;;;15.45;7.35;;;;;;;6.36;70.64;98310.63;5059989;28;20052;-56
2023/02/16 09:31:25;;;;;;;15.98;7.43;;;;;;;6.42;70.90;98310.84;5055669;28;20787;-58
2023/02/16 09:34:00;;;;;;;16.98;7.15;;;;;;;6.44;71.35;98306.06;5056713;28;20036;-58
2023/02/16 09:36:27;;;;;;;12.43;6.72;;;;;;;6.45;72.25;98305.06;5055784;28;20734;-58
2023/02/16 09:38:55;;;;;;;13.93;7.60;;;;;;;6.44;71.32;98303.38;5065702;28;20595;-56
2023/02/16 09:41:53;;;;;;;13.63;7.32;;;;;;;6.47;70.68;98303.00;5057664;28;20693;-59
2023/02/16 09:44:31;;;;;;;14.32;7.13;;;;;;;6.56;71.51;98304.47;5060162;28;20044;-57
2023/02/16 09:47:02;;;;;;;14.73;7.07;;;;;;;6.70;69.81;98301.78;5052621;28;20052;-54
2023/02/16 09:49:34;;;;;;;14.40;7.05;;;;;;;6.84;69.70;98297.28;5056014;28;20568;-59
2023/02/16 09:52:39;;;;;;;11.10;6.65;;;;;;;6.92;69.18;98302.47;5058126;28;20126;-57
2023/02/16 09:55:19;;;;;;;13.02;7.82;;;;;;;7.12;67.96;98298.97;5053985;28;20041;-58
2023/02/16 09:57:55;;;;;;;13.77;6.97;;;;;;;7.12;67.63;98296.28;5059643;28;20055;-58
2023/02/16 10:00:28;;;;;;;11.80;6.80;;;;;;;7.20;67.30;98292.53;5057024;28;20053;-59
2023/02/16 10:03:18;;;;;;;15.02;6.68;;;;;;;7.25;66.64;98298.97;5057605;28;20044;-58
2023/02/16 10:05:55;;;;;;;14.95;7.63;;;;;;;7.38;66.43;98306.22;5050158;28;20044;-56
2023/02/16 10:08:30;;;;;;;13.80;7.32;;;;;;;7.42;66.21;98302.06;5064302;28;20442;-58
2023/02/16 10:14:29;;;;;;;13.43;7.45;;;;;;;7.57;65.65;98298.34;5039985;28;20066;-58
2023/02/16 10:17:27;;;;;;;16.07;7.17;;;;;;;7.60;66.34;98299.78;5062936;28;20117;-59
2023/02/16 10:20:05;;;;;;;14.07;7.10;;;;;;;7.54;65.86;98306.81;5061671;28;20325;-56
2023/02/16 10:22:44;;;;;;;12.65;6.80;;;;;;;7.57;66.11;98300.19;5058873;28;20546;-58
2023/02/16 10:25:40;;;;;;;11.13;6.38;;;;;;;7.62;65.41;98295.84;5060402;28;20036;-59
2023/02/16 10:28:27;;;;;;;12.27;7.32;;;;;;;7.83;65.21;98296.63;5060370;28;20052;-59
2023/02/16 10:31:01;;;;;;;12.93;6.38;;;;;;;7.82;65.20;98292.28;5062012;28;20102;-56
2023/02/16 10:33:42;;;;;;;10.48;6.22;;;;;;;7.86;64.77;98292.66;5059592;28;20048;-59
2023/02/16 10:36:33;;;;;;;10.75;6.47;;;;;;;7.92;64.78;98291.81;5055208;28;20075;-57
2023/02/16 10:39:17;;;;;;;13.25;6.57;;;;;;;7.98;64.80;98290.13;5062472;28;20116;-57
2023/02/16 10:41:49;;;;;;;9.77;6.18;;;;;;;8.11;63.88;98284.69;5058339;28;20048;-57
2023/02/16 10:44:23;;;;;;;13.05;5.88;;;;;;;8.12;64.17;98280.97;5053011;28;20508;-56
2023/02/16 10:46:59;;;;;;;10.52;6.20;;;;;;;8.17;64.23;98281.16;5053738;28;20483;-58
2023/02/16 10:49:27;;;;;;;11.65;6.25;;;;;;;8.26;65.40;98273.63;5059351;28;20049;-55
2023/02/16 10:51:55;;;;;;;11.55;6.72;;;;;;;8.35;65.55;98276.09;5054677;28;20032;-56
2023/02/16 10:54:28;;;;;;;14.32;7.65;;;;;;;8.43;64.69;98282.06;5053572;28;20041;-58
2023/02/16 10:56:58;;;;;;;10.57;6.20;;;;;;;8.45;64.07;98279.97;5062590;28;20041;-58
2023/02/16 10:59:42;;;;;;;15.68;7.28;;;;;;;8.43;65.57;98281.25;5060192;28;20106;-58
2023/02/16 11:02:21;;;;;;;12.10;7.20;;;;;;;8.49;65.00;98274.16;5054912;28;20047;-58
2023/02/16 11:04:51;;;;;;;11.80;5.78;;;;;;;8.56;63.21;98267.69;5059131;28;20602;-59
2023/02/16 11:07:23;;;;;;;11.73;6.63;;;;;;;8.63;62.28;98267.69;5050936;28;20105;-59
2023/02/16 11:09:55;;;;;;;9.48;5.50;;;;;;;8.72;61.94;98268.25;5059457;28;20074;-59
2023/02/16 11:12:24;;;;;;;13.40;5.82;;;;;;;8.77;60.95;98267.59;5048170;28;20093;-59
2023/02/16 11:14:55;;;;;;;12.75;5.88;;;;;;;8.94;59.91;98270.59;5049106;28;20098;-59
2023/02/16 11:17:23;;;;;;;8.60;5.40;;;;;;;9.01;59.72;98265.97;5061008;28;20052;-59
2023/02/16 11:20:08;;;;;;;11.05;5.65;;;;;;;9.16;59.46;98265.63;5035182;28;20076;-57
2023/02/16 11:22:37;;;;;;;10.27;5.38;;;;;;;9.21;59.13;98255.00;5025262;28;20048;-60
2023/02/16 11:25:16;;;;;;;14.02;4.82;;;;;;;9.46;58.13;98254.16;5007397;28;20052;-60
2023/02/16 11:28:10;;;;;;;9.68;5.13;;;;;;;9.59;58.53;98249.66;5027949;28;20644;-60
2023/02/16 11:30:40;;;;;;;9.07;4.57;;;;;;;9.79;55.20;98249.44;5052227;28;20056;-60
2023/02/16 11:33:28;;;;;;;10.60;4.63;;;;;;;9.92;56.54;98242.22;5049297;28;20131;-60
2023/02/16 11:35:55;;;;;;;9.45;3.92;;;;;;;10.27;55.02;98242.41;5058343;28;20040;-60
2023/02/16 11:38:27;;;;;;;11.63;4.50;;;;;;;10.35;54.27;98243.13;5061528;28;20651;-60
2023/02/16 11:40:54;;;;;;;;;;;;;;;10.52;53.96;98240.66;5058978;28;20103;-59
2023/02/16 11:43:21;;;;;;;7.00;4.13;;;;;;;10.66;53.46;98235.88;5058100;28;20415;-60
2023/02/16 11:46:15;;;;;;;11.85;4.00;;;;;;;10.72;53.38;98231.44;5058855;28;20198;-60
2023/02/16 11:48:43;;;;;;;10.93;4.38;;;;;;;10.78;55.02;98236.75;5063067;28;20040;-58
2023/02/16 11:51:14;;;;;;;11.52;4.80;;;;;;;10.99;54.38;98225.56;5060142;28;20120;-58
2023/02/16 11:53:43;;;;;;;13.05;4.65;;;;;;;11.01;53.31;98228.88;5058618;28;20055;-59
2023/02/16 11:56:28;;;;;;;10.00;4.15;;;;;;;11.09;54.05;98216.88;5065581;28;20090;-59
2023/02/16 11:59:21;;;;;;;8.25;4.35;;;;;;;11.19;53.07;98226.06;5056867;28;20504;-60
2023/02/16 12:02:09;;;;;;;7.78;3.75;;;;;;;11.34;54.10;98222.06;5058518;28;20080;-59
2023/02/16 12:05:00;;;;;;;8.85;3.88;;;;;;;11.52;53.78;98215.69;5059991;28;20048;-60
2023/02/16 12:07:48;;;;;;;8.80;3.90;;;;;;;11.60;53.40;98213.69;5056398;28;20044;-55
2023/02/16 12:10:42;;;;;;;7.43;3.95;;;;;;;11.66;52.89;98208.13;5055996;28;20110;-61
2023/02/16 12:13:23;;;;;;;6.03;3.63;;;;;;;11.64;52.42;98201.31;5052798;28;20045;-60
2023/02/16 12:16:16;;;;;;;8.00;4.15;;;;;;;11.69;52.77;98201.41;5056915;28;20036;-61
2023/02/16 12:18:57;;;;;;;8.77;3.83;;;;;;;11.70;53.37;98200.34;5066371;28;20064;-60
2023/02/16 12:21:47;;;;;;;10.23;4.40;;;;;;;11.76;53.52;98198.56;5054743;28;20119;-61
2023/02/16 12:24:43;;;;;;;8.55;4.32;;;;;;;11.71;54.03;98200.09;5056737;28;20044;-61
2023/02/16 12:27:22;;;;;;;6.47;3.85;;;;;;;11.76;54.82;98187.69;5058757;28;20052;-59
2023/02/16 12:30:11;;;;;;;14.77;5.68;;;;;;;11.76;55.34;98182.28;5059400;28;20037;-59
2023/02/16 12:33:25;;;;;;;7.65;4.32;;;;;;;11.82;55.53;98170.44;5055612;28;20578;-60
2023/02/16 12:36:25;;;;;;;7.28;4.18;;;;;;;11.93;55.13;98166.06;5053969;28;20060;-59
2023/02/16 12:39:04;;;;;;;13.55;3.83;;;;;;;11.94;54.52;98173.16;5059986;28;20119;-61
2023/02/16 12:41:59;;;;;;;8.68;4.38;;;;;;;11.99;54.56;98173.25;5057886;28;20045;-59